sensor_id;sensor_type;location;lat;lon;timestamp;P1;durP1;ratioP1;P2;durP2;ratioP2
19664;SDS011;9980;51.020;7.772;2023-06-05T00:02:08;2.50;;;2.30;;
19664;SDS011;9980;51.020;7.772;2023-06-05T00:04:35;1.90;;;1.80;;
19664;SDS011;9980;51.020;7.772;2023-06-05T00:07:02;2.23;;;2.03;;
19664;SDS011;9980;51.020;7.772;2023-06-05T00:09:29;2.73;;;2.43;;
19664;SDS011;9980;51.020;7.772;2023-06-05T00:11:56;3.67;;;2.90;;
19664;SDS011;9980;51.020;7.772;2023-06-05T00:14:23;2.70;;;2.50;;
19664;SDS011;9980;51.020;7.772;2023-06-05T00:16:50;3.23;;;2.93;;
19664;SDS011;9980;51.020;7.772;2023-06-05T00:19:18;2.83;;;2.60;;
19664;SDS011;9980;51.020;7.772;2023-06-05T00:21:45;2.40;;;2.20;;
19664;SDS011;9980;51.020;7.772;2023-06-05T00:24:12;2.80;;;2.60;;
19664;SDS011;9980;51.020;7.772;2023-06-05T00:26:39;2.70;;;2.50;;
19664;SDS011;9980;51.020;7.772;2023-06-05T00:29:06;3.77;;;2.50;;
19664;SDS011;9980;51.020;7.772;2023-06-05T00:31:33;2.77;;;2.50;;
19664;SDS011;9980;51.020;7.772;2023-06-05T00:34:00;2.43;;;2.23;;
19664;SDS011;9980;51.020;7.772;2023-06-05T00:36:27;3.00;;;2.80;;
19664;SDS011;9980;51.020;7.772;2023-06-05T00:38:56;2.57;;;2.37;;
19664;SDS011;9980;51.020;7.772;2023-06-05T00:41:23;2.50;;;2.30;;
19664;SDS011;9980;51.020;7.772;2023-06-05T00:43:50;3.00;;;2.70;;
19664;SDS011;9980;51.020;7.772;2023-06-05T00:46:16;2.57;;;2.37;;
19664;SDS011;9980;51.020;7.772;2023-06-05T00:48:44;2.73;;;2.53;;
19664;SDS011;9980;51.020;7.772;2023-06-05T00:51:15;2.80;;;2.47;;
19664;SDS011;9980;51.020;7.772;2023-06-05T00:53:44;5.47;;;2.63;;
19664;SDS011;9980;51.020;7.772;2023-06-05T00:56:13;3.53;;;2.30;;
19664;SDS011;9980;51.020;7.772;2023-06-05T00:58:40;3.17;;;2.40;;
19664;SDS011;9980;51.020;7.772;2023-06-05T01:01:07;3.53;;;2.30;;
19664;SDS011;9980;51.020;7.772;2023-06-05T01:03:38;2.47;;;2.23;;
19664;SDS011;9980;51.020;7.772;2023-06-05T01:06:06;2.27;;;2.17;;
19664;SDS011;9980;51.020;7.772;2023-06-05T01:08:34;2.47;;;2.10;;
19664;SDS011;9980;51.020;7.772;2023-06-05T01:11:09;2.40;;;2.30;;
19664;SDS011;9980;51.020;7.772;2023-06-05T01:14:06;1.97;;;1.77;;
19664;SDS011;9980;51.020;7.772;2023-06-05T01:16:45;2.70;;;2.50;;
19664;SDS011;9980;51.020;7.772;2023-06-05T01:19:20;2.50;;;2.30;;
19664;SDS011;9980;51.020;7.772;2023-06-05T01:21:51;2.67;;;2.47;;
19664;SDS011;9980;51.020;7.772;2023-06-05T01:24:18;2.60;;;2.40;;
19664;SDS011;9980;51.020;7.772;2023-06-05T01:26:53;3.50;;;2.80;;
19664;SDS011;9980;51.020;7.772;2023-06-05T01:32:38;2.60;;;2.40;;
19664;SDS011;9980;51.020;7.772;2023-06-05T01:35:21;2.40;;;2.20;;
19664;SDS011;9980;51.020;7.772;2023-06-05T01:37:55;2.47;;;2.33;;
19664;SDS011;9980;51.020;7.772;2023-06-05T01:40:26;2.27;;;2.17;;
19664;SDS011;9980;51.020;7.772;2023-06-05T01:42:54;2.60;;;2.40;;
19664;SDS011;9980;51.020;7.772;2023-06-05T01:45:23;1.90;;;1.80;;
19664;SDS011;9980;51.020;7.772;2023-06-05T01:47:50;2.60;;;2.40;;
19664;SDS011;9980;51.020;7.772;2023-06-05T01:50:17;2.60;;;2.30;;
19664;SDS011;9980;51.020;7.772;2023-06-05T01:52:45;3.10;;;2.37;;
19664;SDS011;9980;51.020;7.772;2023-06-05T01:55:15;2.80;;;2.60;;
19664;SDS011;9980;51.020;7.772;2023-06-05T01:57:46;2.70;;;2.50;;
19664;SDS011;9980;51.020;7.772;2023-06-05T02:00:13;2.33;;;2.13;;
19664;SDS011;9980;51.020;7.772;2023-06-05T02:02:45;3.07;;;2.60;;
19664;SDS011;9980;51.020;7.772;2023-06-05T02:05:15;2.80;;;2.60;;
19664;SDS011;9980;51.020;7.772;2023-06-05T02:07:46;2.43;;;2.23;;
19664;SDS011;9980;51.020;7.772;2023-06-05T02:10:19;2.80;;;2.50;;
19664;SDS011;9980;51.020;7.772;2023-06-05T02:12:47;3.10;;;2.90;;
19664;SDS011;9980;51.020;7.772;2023-06-05T02:15:14;3.60;;;2.80;;
19664;SDS011;9980;51.020;7.772;2023-06-05T02:17:42;2.63;;;2.43;;
19664;SDS011;9980;51.020;7.772;2023-06-05T02:20:23;2.73;;;2.53;;
19664;SDS011;9980;51.020;7.772;2023-06-05T02:22:51;2.73;;;2.53;;
19664;SDS011;9980;51.020;7.772;2023-06-05T02:25:21;2.33;;;2.13;;
19664;SDS011;9980;51.020;7.772;2023-06-05T02:27:53;2.63;;;2.43;;
19664;SDS011;9980;51.020;7.772;2023-06-05T02:30:21;2.80;;;2.60;;
19664;SDS011;9980;51.020;7.772;2023-06-05T02:32:49;5.80;;;3.00;;
19664;SDS011;9980;51.020;7.772;2023-06-05T02:35:23;2.63;;;2.43;;
19664;SDS011;9980;51.020;7.772;2023-06-05T02:37:50;2.70;;;2.50;;
19664;SDS011;9980;51.020;7.772;2023-06-05T02:40:18;2.43;;;2.33;;
19664;SDS011;9980;51.020;7.772;2023-06-05T02:42:46;2.77;;;2.50;;
19664;SDS011;9980;51.020;7.772;2023-06-05T02:45:13;2.97;;;2.33;;
19664;SDS011;9980;51.020;7.772;2023-06-05T02:47:40;3.93;;;2.47;;
19664;SDS011;9980;51.020;7.772;2023-06-05T02:50:08;4.37;;;2.87;;
19664;SDS011;9980;51.020;7.772;2023-06-05T02:52:40;3.00;;;2.73;;
19664;SDS011;9980;51.020;7.772;2023-06-05T02:55:12;3.13;;;2.83;;
19664;SDS011;9980;51.020;7.772;2023-06-05T02:57:41;4.50;;;2.50;;
19664;SDS011;9980;51.020;7.772;2023-06-05T03:00:13;2.50;;;2.30;;
19664;SDS011;9980;51.020;7.772;2023-06-05T03:02:47;4.70;;;2.90;;
19664;SDS011;9980;51.020;7.772;2023-06-05T03:05:21;2.90;;;2.70;;
19664;SDS011;9980;51.020;7.772;2023-06-05T03:07:53;3.20;;;3.00;;
19664;SDS011;9980;51.020;7.772;2023-06-05T03:10:21;3.83;;;2.83;;
19664;SDS011;9980;51.020;7.772;2023-06-05T03:12:49;3.13;;;2.90;;
19664;SDS011;9980;51.020;7.772;2023-06-05T03:15:16;3.13;;;2.93;;
19664;SDS011;9980;51.020;7.772;2023-06-05T03:17:45;3.23;;;3.03;;
19664;SDS011;9980;51.020;7.772;2023-06-05T03:20:15;2.97;;;2.77;;
19664;SDS011;9980;51.020;7.772;2023-06-05T03:22:45;3.10;;;2.90;;
19664;SDS011;9980;51.020;7.772;2023-06-05T03:25:12;2.90;;;2.70;;
19664;SDS011;9980;51.020;7.772;2023-06-05T03:27:41;2.80;;;2.60;;
19664;SDS011;9980;51.020;7.772;2023-06-05T03:30:09;3.20;;;3.00;;
19664;SDS011;9980;51.020;7.772;2023-06-05T03:32:42;3.00;;;2.80;;
19664;SDS011;9980;51.020;7.772;2023-06-05T03:35:11;3.57;;;2.63;;
19664;SDS011;9980;51.020;7.772;2023-06-05T03:37:39;3.10;;;2.80;;
19664;SDS011;9980;51.020;7.772;2023-06-05T03:40:06;2.73;;;2.53;;
19664;SDS011;9980;51.020;7.772;2023-06-05T03:42:36;3.40;;;2.87;;
19664;SDS011;9980;51.020;7.772;2023-06-05T03:45:03;3.50;;;3.20;;
19664;SDS011;9980;51.020;7.772;2023-06-05T03:47:31;5.30;;;3.10;;
19664;SDS011;9980;51.020;7.772;2023-06-05T03:50:00;3.20;;;2.90;;
19664;SDS011;9980;51.020;7.772;2023-06-05T03:52:33;3.33;;;3.13;;
19664;SDS011;9980;51.020;7.772;2023-06-05T03:55:03;3.50;;;3.20;;
19664;SDS011;9980;51.020;7.772;2023-06-05T03:57:33;3.07;;;2.87;;
19664;SDS011;9980;51.020;7.772;2023-06-05T04:00:01;5.63;;;3.23;;
19664;SDS011;9980;51.020;7.772;2023-06-05T04:02:38;9.33;;;4.00;;
19664;SDS011;9980;51.020;7.772;2023-06-05T04:05:07;4.20;;;3.90;;
19664;SDS011;9980;51.020;7.772;2023-06-05T04:07:38;5.27;;;3.87;;
19664;SDS011;9980;51.020;7.772;2023-06-05T04:10:06;3.57;;;3.33;;
19664;SDS011;9980;51.020;7.772;2023-06-05T04:12:33;3.70;;;3.40;;
19664;SDS011;9980;51.020;7.772;2023-06-05T04:15:01;5.90;;;4.00;;
19664;SDS011;9980;51.020;7.772;2023-06-05T04:17:28;5.13;;;4.27;;
19664;SDS011;9980;51.020;7.772;2023-06-05T04:19:55;4.30;;;3.90;;
19664;SDS011;9980;51.020;7.772;2023-06-05T04:22:24;3.50;;;3.20;;
19664;SDS011;9980;51.020;7.772;2023-06-05T04:24:51;4.40;;;4.00;;
19664;SDS011;9980;51.020;7.772;2023-06-05T04:27:20;4.70;;;3.93;;
19664;SDS011;9980;51.020;7.772;2023-06-05T04:29:47;3.70;;;3.40;;
19664;SDS011;9980;51.020;7.772;2023-06-05T04:32:16;4.80;;;3.37;;
19664;SDS011;9980;51.020;7.772;2023-06-05T04:34:43;3.47;;;3.17;;
19664;SDS011;9980;51.020;7.772;2023-06-05T04:37:10;3.67;;;3.37;;
19664;SDS011;9980;51.020;7.772;2023-06-05T04:39:37;3.93;;;3.57;;
19664;SDS011;9980;51.020;7.772;2023-06-05T04:42:04;4.50;;;3.70;;
19664;SDS011;9980;51.020;7.772;2023-06-05T04:44:39;3.93;;;3.53;;
19664;SDS011;9980;51.020;7.772;2023-06-05T04:47:06;3.97;;;3.57;;
19664;SDS011;9980;51.020;7.772;2023-06-05T04:49:34;3.97;;;3.57;;
19664;SDS011;9980;51.020;7.772;2023-06-05T04:52:01;3.77;;;3.30;;
19664;SDS011;9980;51.020;7.772;2023-06-05T04:54:29;3.77;;;3.40;;
19664;SDS011;9980;51.020;7.772;2023-06-05T04:56:57;3.70;;;3.40;;
19664;SDS011;9980;51.020;7.772;2023-06-05T04:59:24;4.13;;;3.60;;
19664;SDS011;9980;51.020;7.772;2023-06-05T05:01:52;3.57;;;3.23;;
19664;SDS011;9980;51.020;7.772;2023-06-05T05:04:21;3.77;;;3.00;;
19664;SDS011;9980;51.020;7.772;2023-06-05T05:06:50;3.33;;;3.07;;
19664;SDS011;9980;51.020;7.772;2023-06-05T05:09:17;4.00;;;3.67;;
19664;SDS011;9980;51.020;7.772;2023-06-05T05:11:45;3.43;;;3.13;;
19664;SDS011;9980;51.020;7.772;2023-06-05T05:14:12;4.13;;;3.47;;
19664;SDS011;9980;51.020;7.772;2023-06-05T05:16:39;3.50;;;3.20;;
19664;SDS011;9980;51.020;7.772;2023-06-05T05:19:09;4.43;;;3.60;;
19664;SDS011;9980;51.020;7.772;2023-06-05T05:21:36;3.80;;;3.27;;
19664;SDS011;9980;51.020;7.772;2023-06-05T05:24:03;8.87;;;3.47;;
19664;SDS011;9980;51.020;7.772;2023-06-05T05:26:33;3.43;;;3.13;;
19664;SDS011;9980;51.020;7.772;2023-06-05T05:29:00;3.33;;;3.10;;
19664;SDS011;9980;51.020;7.772;2023-06-05T05:31:27;3.13;;;2.93;;
19664;SDS011;9980;51.020;7.772;2023-06-05T05:33:56;4.53;;;3.47;;
19664;SDS011;9980;51.020;7.772;2023-06-05T05:36:24;4.63;;;3.10;;
19664;SDS011;9980;51.020;7.772;2023-06-05T05:38:56;4.60;;;3.10;;
19664;SDS011;9980;51.020;7.772;2023-06-05T05:41:22;4.00;;;2.93;;
19664;SDS011;9980;51.020;7.772;2023-06-05T05:43:50;3.33;;;3.03;;
19664;SDS011;9980;51.020;7.772;2023-06-05T05:46:16;3.37;;;3.07;;
19664;SDS011;9980;51.020;7.772;2023-06-05T05:48:44;3.30;;;3.10;;
19664;SDS011;9980;51.020;7.772;2023-06-05T05:51:10;6.53;;;2.87;;
19664;SDS011;9980;51.020;7.772;2023-06-05T05:53:37;6.60;;;2.87;;
19664;SDS011;9980;51.020;7.772;2023-06-05T05:56:04;2.60;;;2.40;;
19664;SDS011;9980;51.020;7.772;2023-06-05T05:58:31;6.20;;;3.40;;
19664;SDS011;9980;51.020;7.772;2023-06-05T06:00:58;3.83;;;2.90;;
19664;SDS011;9980;51.020;7.772;2023-06-05T06:03:26;3.73;;;2.70;;
19664;SDS011;9980;51.020;7.772;2023-06-05T06:05:56;2.90;;;2.70;;
19664;SDS011;9980;51.020;7.772;2023-06-05T06:08:23;2.50;;;2.30;;
19664;SDS011;9980;51.020;7.772;2023-06-05T06:10:51;4.00;;;2.60;;
19664;SDS011;9980;51.020;7.772;2023-06-05T06:13:18;3.43;;;2.80;;
19664;SDS011;9980;51.020;7.772;2023-06-05T06:15:45;2.37;;;2.17;;
19664;SDS011;9980;51.020;7.772;2023-06-05T06:18:12;2.57;;;2.37;;
19664;SDS011;9980;51.020;7.772;2023-06-05T06:20:39;4.63;;;2.37;;
19664;SDS011;9980;51.020;7.772;2023-06-05T06:23:06;2.60;;;2.40;;
19664;SDS011;9980;51.020;7.772;2023-06-05T06:25:34;2.30;;;1.97;;
19664;SDS011;9980;51.020;7.772;2023-06-05T06:28:01;2.47;;;2.23;;
19664;SDS011;9980;51.020;7.772;2023-06-05T06:30:28;2.17;;;1.73;;
19664;SDS011;9980;51.020;7.772;2023-06-05T06:32:55;2.00;;;1.70;;
19664;SDS011;9980;51.020;7.772;2023-06-05T06:35:27;3.10;;;2.30;;
19664;SDS011;9980;51.020;7.772;2023-06-05T06:37:54;3.63;;;2.33;;
19664;SDS011;9980;51.020;7.772;2023-06-05T06:40:22;2.30;;;2.10;;
19664;SDS011;9980;51.020;7.772;2023-06-05T06:42:50;3.67;;;2.10;;
19664;SDS011;9980;51.020;7.772;2023-06-05T06:45:33;2.50;;;2.23;;
19664;SDS011;9980;51.020;7.772;2023-06-05T06:48:01;3.63;;;2.10;;
19664;SDS011;9980;51.020;7.772;2023-06-05T06:50:30;2.63;;;2.33;;
19664;SDS011;9980;51.020;7.772;2023-06-05T06:52:57;4.07;;;2.20;;
19664;SDS011;9980;51.020;7.772;2023-06-05T06:55:24;2.93;;;2.43;;
19664;SDS011;9980;51.020;7.772;2023-06-05T06:57:52;2.80;;;2.43;;
19664;SDS011;9980;51.020;7.772;2023-06-05T07:00:18;2.20;;;2.00;;
19664;SDS011;9980;51.020;7.772;2023-06-05T07:02:46;5.37;;;2.60;;
19664;SDS011;9980;51.020;7.772;2023-06-05T07:05:14;2.43;;;2.23;;
19664;SDS011;9980;51.020;7.772;2023-06-05T07:07:41;2.90;;;2.53;;
19664;SDS011;9980;51.020;7.772;2023-06-05T07:10:08;2.67;;;2.47;;
19664;SDS011;9980;51.020;7.772;2023-06-05T07:12:36;2.63;;;2.30;;
19664;SDS011;9980;51.020;7.772;2023-06-05T07:15:03;4.00;;;2.50;;
19664;SDS011;9980;51.020;7.772;2023-06-05T07:17:30;6.63;;;2.30;;
19664;SDS011;9980;51.020;7.772;2023-06-05T07:19:57;5.03;;;2.33;;
19664;SDS011;9980;51.020;7.772;2023-06-05T07:22:25;2.20;;;2.00;;
19664;SDS011;9980;51.020;7.772;2023-06-05T07:24:56;3.70;;;2.43;;
19664;SDS011;9980;51.020;7.772;2023-06-05T07:27:23;2.20;;;2.00;;
19664;SDS011;9980;51.020;7.772;2023-06-05T07:29:50;2.83;;;2.27;;
19664;SDS011;9980;51.020;7.772;2023-06-05T07:32:19;2.33;;;2.13;;
19664;SDS011;9980;51.020;7.772;2023-06-05T07:34:46;2.33;;;1.77;;
19664;SDS011;9980;51.020;7.772;2023-06-05T07:37:14;5.13;;;2.33;;
19664;SDS011;9980;51.020;7.772;2023-06-05T07:39:41;3.17;;;2.40;;
19664;SDS011;9980;51.020;7.772;2023-06-05T07:42:08;2.20;;;2.00;;
19664;SDS011;9980;51.020;7.772;2023-06-05T07:44:35;2.30;;;2.10;;
19664;SDS011;9980;51.020;7.772;2023-06-05T07:47:02;5.13;;;2.43;;
19664;SDS011;9980;51.020;7.772;2023-06-05T07:49:29;2.60;;;2.40;;
19664;SDS011;9980;51.020;7.772;2023-06-05T07:52:00;2.27;;;2.00;;
19664;SDS011;9980;51.020;7.772;2023-06-05T07:54:27;2.30;;;2.10;;
19664;SDS011;9980;51.020;7.772;2023-06-05T07:56:54;5.70;;;2.50;;
19664;SDS011;9980;51.020;7.772;2023-06-05T07:59:23;2.27;;;2.07;;
19664;SDS011;9980;51.020;7.772;2023-06-05T08:01:54;3.27;;;2.37;;
19664;SDS011;9980;51.020;7.772;2023-06-05T08:04:22;2.37;;;2.07;;
19664;SDS011;9980;51.020;7.772;2023-06-05T08:06:51;3.10;;;2.30;;
19664;SDS011;9980;51.020;7.772;2023-06-05T08:09:18;2.00;;;1.80;;
19664;SDS011;9980;51.020;7.772;2023-06-05T08:11:45;2.53;;;2.00;;
19664;SDS011;9980;51.020;7.772;2023-06-05T08:14:12;4.57;;;2.10;;
19664;SDS011;9980;51.020;7.772;2023-06-05T08:16:39;2.13;;;1.93;;
19664;SDS011;9980;51.020;7.772;2023-06-05T08:19:06;5.53;;;2.13;;
19664;SDS011;9980;51.020;7.772;2023-06-05T08:21:33;1.98;;;1.77;;
19664;SDS011;9980;51.020;7.772;2023-06-05T08:24:01;2.90;;;2.15;;
19664;SDS011;9980;51.020;7.772;2023-06-05T08:26:28;2.30;;;2.10;;
19664;SDS011;9980;51.020;7.772;2023-06-05T08:28:55;3.05;;;1.85;;
19664;SDS011;9980;51.020;7.772;2023-06-05T08:31:22;3.03;;;1.80;;
19664;SDS011;9980;51.020;7.772;2023-06-05T08:33:50;2.22;;;2.03;;
19664;SDS011;9980;51.020;7.772;2023-06-05T08:36:17;3.67;;;1.70;;
19664;SDS011;9980;51.020;7.772;2023-06-05T08:38:44;2.58;;;1.52;;
19664;SDS011;9980;51.020;7.772;2023-06-05T08:41:12;3.03;;;1.58;;
19664;SDS011;9980;51.020;7.772;2023-06-05T08:43:42;2.17;;;1.70;;
19664;SDS011;9980;51.020;7.772;2023-06-05T08:46:13;5.00;;;1.50;;
19664;SDS011;9980;51.020;7.772;2023-06-05T08:48:45;1.58;;;1.48;;
19664;SDS011;9980;51.020;7.772;2023-06-05T08:51:15;3.13;;;1.50;;
19664;SDS011;9980;51.020;7.772;2023-06-05T08:54:02;5.18;;;1.30;;
19664;SDS011;9980;51.020;7.772;2023-06-05T08:56:33;3.67;;;1.40;;
19664;SDS011;9980;51.020;7.772;2023-06-05T08:59:03;1.75;;;1.27;;
19664;SDS011;9980;51.020;7.772;2023-06-05T09:01:32;3.80;;;1.50;;
19664;SDS011;9980;51.020;7.772;2023-06-05T09:03:59;1.48;;;1.38;;
19664;SDS011;9980;51.020;7.772;2023-06-05T09:06:26;2.95;;;1.30;;
19664;SDS011;9980;51.020;7.772;2023-06-05T09:08:54;7.40;;;1.67;;
19664;SDS011;9980;51.020;7.772;2023-06-05T09:11:28;4.35;;;1.83;;
19664;SDS011;9980;51.020;7.772;2023-06-05T09:13:58;2.45;;;1.35;;
19664;SDS011;9980;51.020;7.772;2023-06-05T09:19:12;2.65;;;1.30;;
19664;SDS011;9980;51.020;7.772;2023-06-05T09:21:39;3.08;;;1.70;;
19664;SDS011;9980;51.020;7.772;2023-06-05T09:24:13;2.97;;;1.45;;
19664;SDS011;9980;51.020;7.772;2023-06-05T09:26:46;2.05;;;1.58;;
19664;SDS011;9980;51.020;7.772;2023-06-05T09:29:33;1.48;;;1.30;;
19664;SDS011;9980;51.020;7.772;2023-06-05T09:32:04;2.67;;;1.35;;
19664;SDS011;9980;51.020;7.772;2023-06-05T09:34:40;3.55;;;1.55;;
19664;SDS011;9980;51.020;7.772;2023-06-05T09:37:09;1.83;;;1.38;;
19664;SDS011;9980;51.020;7.772;2023-06-05T09:39:37;1.38;;;1.25;;
19664;SDS011;9980;51.020;7.772;2023-06-05T09:42:12;4.55;;;1.60;;
19664;SDS011;9980;51.020;7.772;2023-06-05T09:44:39;4.05;;;1.23;;
19664;SDS011;9980;51.020;7.772;2023-06-05T09:47:07;5.72;;;1.35;;
19664;SDS011;9980;51.020;7.772;2023-06-05T09:52:07;2.42;;;1.50;;
19664;SDS011;9980;51.020;7.772;2023-06-05T09:54:36;4.88;;;1.30;;
19664;SDS011;9980;51.020;7.772;2023-06-05T09:57:10;6.45;;;1.77;;
19664;SDS011;9980;51.020;7.772;2023-06-05T09:59:52;3.55;;;1.50;;
19664;SDS011;9980;51.020;7.772;2023-06-05T10:02:24;1.30;;;1.20;;
19664;SDS011;9980;51.020;7.772;2023-06-05T10:05:01;3.78;;;1.77;;
19664;SDS011;9980;51.020;7.772;2023-06-05T10:07:30;1.80;;;1.40;;
19664;SDS011;9980;51.020;7.772;2023-06-05T10:09:58;2.17;;;1.48;;
19664;SDS011;9980;51.020;7.772;2023-06-05T10:12:26;1.77;;;1.40;;
19664;SDS011;9980;51.020;7.772;2023-06-05T10:14:57;2.58;;;1.25;;
19664;SDS011;9980;51.020;7.772;2023-06-05T10:17:24;1.58;;;1.20;;
19664;SDS011;9980;51.020;7.772;2023-06-05T10:19:53;1.60;;;1.33;;
19664;SDS011;9980;51.020;7.772;2023-06-05T10:22:20;2.85;;;1.40;;
19664;SDS011;9980;51.020;7.772;2023-06-05T10:24:56;1.40;;;1.30;;
19664;SDS011;9980;51.020;7.772;2023-06-05T10:27:40;1.88;;;1.45;;
19664;SDS011;9980;51.020;7.772;2023-06-05T10:30:40;2.35;;;1.30;;
19664;SDS011;9980;51.020;7.772;2023-06-05T10:36:53;3.72;;;1.60;;
19664;SDS011;9980;51.020;7.772;2023-06-05T10:39:32;3.00;;;1.20;;
19664;SDS011;9980;51.020;7.772;2023-06-05T10:42:01;1.58;;;1.27;;
19664;SDS011;9980;51.020;7.772;2023-06-05T10:44:41;2.67;;;1.25;;
19664;SDS011;9980;51.020;7.772;2023-06-05T10:52:46;2.00;;;1.55;;
19664;SDS011;9980;51.020;7.772;2023-06-05T10:55:14;1.52;;;1.23;;
19664;SDS011;9980;51.020;7.772;2023-06-05T11:00:27;1.65;;;1.45;;
19664;SDS011;9980;51.020;7.772;2023-06-05T11:02:56;1.52;;;1.42;;
19664;SDS011;9980;51.020;7.772;2023-06-05T11:05:27;2.38;;;1.23;;
19664;SDS011;9980;51.020;7.772;2023-06-05T11:08:14;1.50;;;1.05;;
19664;SDS011;9980;51.020;7.772;2023-06-05T11:11:01;1.80;;;1.50;;
19664;SDS011;9980;51.020;7.772;2023-06-05T11:13:51;4.18;;;1.30;;
19664;SDS011;9980;51.020;7.772;2023-06-05T11:16:40;2.60;;;1.42;;
19664;SDS011;9980;51.020;7.772;2023-06-05T11:22:03;2.40;;;1.27;;
19664;SDS011;9980;51.020;7.772;2023-06-05T11:24:35;2.13;;;1.10;;
19664;SDS011;9980;51.020;7.772;2023-06-05T11:27:04;1.80;;;1.33;;
19664;SDS011;9980;51.020;7.772;2023-06-05T11:29:32;1.60;;;1.30;;
19664;SDS011;9980;51.020;7.772;2023-06-05T11:32:00;1.60;;;1.30;;
19664;SDS011;9980;51.020;7.772;2023-06-05T11:34:38;2.13;;;1.42;;
19664;SDS011;9980;51.020;7.772;2023-06-05T11:37:23;2.03;;;1.45;;
19664;SDS011;9980;51.020;7.772;2023-06-05T11:39:52;2.08;;;1.10;;
19664;SDS011;9980;51.020;7.772;2023-06-05T11:42:22;2.78;;;1.38;;
19664;SDS011;9980;51.020;7.772;2023-06-05T11:44:52;1.58;;;1.38;;
19664;SDS011;9980;51.020;7.772;2023-06-05T11:47:22;1.50;;;1.30;;
19664;SDS011;9980;51.020;7.772;2023-06-05T11:49:51;2.17;;;1.40;;
19664;SDS011;9980;51.020;7.772;2023-06-05T11:52:18;1.90;;;1.50;;
19664;SDS011;9980;51.020;7.772;2023-06-05T11:54:49;2.30;;;1.35;;
19664;SDS011;9980;51.020;7.772;2023-06-05T11:57:44;2.03;;;1.20;;
19664;SDS011;9980;51.020;7.772;2023-06-05T12:00:22;3.15;;;1.52;;
19664;SDS011;9980;51.020;7.772;2023-06-05T12:02:50;2.47;;;1.30;;
19664;SDS011;9980;51.020;7.772;2023-06-05T12:05:18;4.13;;;1.05;;
19664;SDS011;9980;51.020;7.772;2023-06-05T12:07:45;5.63;;;1.70;;
19664;SDS011;9980;51.020;7.772;2023-06-05T12:10:12;3.95;;;1.30;;
19664;SDS011;9980;51.020;7.772;2023-06-05T12:12:51;1.73;;;1.38;;
19664;SDS011;9980;51.020;7.772;2023-06-05T12:15:20;1.40;;;1.17;;
19664;SDS011;9980;51.020;7.772;2023-06-05T12:17:51;1.65;;;1.25;;
19664;SDS011;9980;51.020;7.772;2023-06-05T12:20:22;1.73;;;1.20;;
19664;SDS011;9980;51.020;7.772;2023-06-05T12:22:50;3.03;;;1.58;;
19664;SDS011;9980;51.020;7.772;2023-06-05T12:25:22;1.55;;;1.15;;
19664;SDS011;9980;51.020;7.772;2023-06-05T12:27:50;1.42;;;1.20;;
19664;SDS011;9980;51.020;7.772;2023-06-05T12:30:18;2.03;;;1.20;;
19664;SDS011;9980;51.020;7.772;2023-06-05T12:32:46;3.88;;;1.60;;
19664;SDS011;9980;51.020;7.772;2023-06-05T12:35:18;1.50;;;1.40;;
19664;SDS011;9980;51.020;7.772;2023-06-05T12:37:47;3.65;;;1.40;;
19664;SDS011;9980;51.020;7.772;2023-06-05T12:40:17;2.42;;;1.27;;
19664;SDS011;9980;51.020;7.772;2023-06-05T12:43:01;1.98;;;1.10;;
19664;SDS011;9980;51.020;7.772;2023-06-05T12:45:28;2.42;;;1.60;;
19664;SDS011;9980;51.020;7.772;2023-06-05T12:47:57;1.70;;;1.35;;
19664;SDS011;9980;51.020;7.772;2023-06-05T12:50:24;2.00;;;1.40;;
19664;SDS011;9980;51.020;7.772;2023-06-05T12:52:52;2.40;;;1.52;;
19664;SDS011;9980;51.020;7.772;2023-06-05T12:55:20;3.03;;;1.55;;
19664;SDS011;9980;51.020;7.772;2023-06-05T12:57:47;1.20;;;1.08;;
19664;SDS011;9980;51.020;7.772;2023-06-05T13:00:14;2.60;;;1.17;;
19664;SDS011;9980;51.020;7.772;2023-06-05T13:02:44;2.13;;;1.48;;
19664;SDS011;9980;51.020;7.772;2023-06-05T13:05:12;1.30;;;1.20;;
19664;SDS011;9980;51.020;7.772;2023-06-05T13:07:41;2.75;;;1.50;;
19664;SDS011;9980;51.020;7.772;2023-06-05T13:10:08;1.20;;;1.10;;
19664;SDS011;9980;51.020;7.772;2023-06-05T13:12:37;2.33;;;1.30;;
19664;SDS011;9980;51.020;7.772;2023-06-05T13:15:04;1.48;;;1.35;;
19664;SDS011;9980;51.020;7.772;2023-06-05T13:17:33;2.20;;;1.30;;
19664;SDS011;9980;51.020;7.772;2023-06-05T13:20:02;2.45;;;1.20;;
19664;SDS011;9980;51.020;7.772;2023-06-05T13:22:34;2.50;;;1.23;;
19664;SDS011;9980;51.020;7.772;2023-06-05T13:25:01;1.95;;;1.50;;
19664;SDS011;9980;51.020;7.772;2023-06-05T13:27:29;4.28;;;1.75;;
19664;SDS011;9980;51.020;7.772;2023-06-05T13:29:56;1.83;;;1.20;;
19664;SDS011;9980;51.020;7.772;2023-06-05T13:32:23;2.42;;;1.60;;
19664;SDS011;9980;51.020;7.772;2023-06-05T13:34:51;2.10;;;1.40;;
19664;SDS011;9980;51.020;7.772;2023-06-05T13:37:20;2.25;;;1.55;;
19664;SDS011;9980;51.020;7.772;2023-06-05T13:39:49;1.80;;;1.45;;
19664;SDS011;9980;51.020;7.772;2023-06-05T13:42:16;1.50;;;1.40;;
19664;SDS011;9980;51.020;7.772;2023-06-05T13:44:44;3.75;;;1.40;;
19664;SDS011;9980;51.020;7.772;2023-06-05T13:47:11;1.45;;;1.27;;
19664;SDS011;9980;51.020;7.772;2023-06-05T13:49:39;4.97;;;1.17;;
19664;SDS011;9980;51.020;7.772;2023-06-05T13:52:07;3.78;;;1.40;;
19664;SDS011;9980;51.020;7.772;2023-06-05T13:54:34;3.28;;;1.50;;
19664;SDS011;9980;51.020;7.772;2023-06-05T13:57:01;2.20;;;1.42;;
19664;SDS011;9980;51.020;7.772;2023-06-05T13:59:29;3.22;;;1.58;;
19664;SDS011;9980;51.020;7.772;2023-06-05T14:01:56;4.35;;;1.33;;
19664;SDS011;9980;51.020;7.772;2023-06-05T14:04:23;1.45;;;1.23;;
19664;SDS011;9980;51.020;7.772;2023-06-05T14:06:50;3.00;;;1.38;;
19664;SDS011;9980;51.020;7.772;2023-06-05T14:09:18;4.53;;;1.50;;
19664;SDS011;9980;51.020;7.772;2023-06-05T14:11:45;3.78;;;1.30;;
19664;SDS011;9980;51.020;7.772;2023-06-05T14:14:12;2.03;;;1.27;;
19664;SDS011;9980;51.020;7.772;2023-06-05T14:16:39;2.63;;;1.45;;
19664;SDS011;9980;51.020;7.772;2023-06-05T14:19:06;1.55;;;1.17;;
19664;SDS011;9980;51.020;7.772;2023-06-05T14:21:35;1.67;;;1.25;;
19664;SDS011;9980;51.020;7.772;2023-06-05T14:24:03;1.52;;;1.30;;
19664;SDS011;9980;51.020;7.772;2023-06-05T14:26:31;2.35;;;1.80;;
19664;SDS011;9980;51.020;7.772;2023-06-05T14:28:59;1.70;;;1.60;;
19664;SDS011;9980;51.020;7.772;2023-06-05T14:31:26;3.30;;;1.33;;
19664;SDS011;9980;51.020;7.772;2023-06-05T14:33:54;1.98;;;1.23;;
19664;SDS011;9980;51.020;7.772;2023-06-05T14:36:22;1.73;;;1.38;;
19664;SDS011;9980;51.020;7.772;2023-06-05T14:38:49;2.15;;;1.38;;
19664;SDS011;9980;51.020;7.772;2023-06-05T14:41:16;1.50;;;1.25;;
19664;SDS011;9980;51.020;7.772;2023-06-05T14:43:45;1.85;;;1.60;;
19664;SDS011;9980;51.020;7.772;2023-06-05T14:46:12;3.63;;;1.60;;
19664;SDS011;9980;51.020;7.772;2023-06-05T14:48:40;1.85;;;1.25;;
19664;SDS011;9980;51.020;7.772;2023-06-05T14:51:08;2.63;;;1.63;;
19664;SDS011;9980;51.020;7.772;2023-06-05T14:53:35;4.65;;;1.52;;
19664;SDS011;9980;51.020;7.772;2023-06-05T14:56:02;6.50;;;1.55;;
19664;SDS011;9980;51.020;7.772;2023-06-05T14:58:29;2.15;;;1.10;;
19664;SDS011;9980;51.020;7.772;2023-06-05T15:00:56;2.40;;;1.10;;
19664;SDS011;9980;51.020;7.772;2023-06-05T15:03:24;2.13;;;1.65;;
19664;SDS011;9980;51.020;7.772;2023-06-05T15:05:52;3.22;;;1.33;;
19664;SDS011;9980;51.020;7.772;2023-06-05T15:08:19;7.03;;;1.52;;
19664;SDS011;9980;51.020;7.772;2023-06-05T15:10:49;1.83;;;1.27;;
19664;SDS011;9980;51.020;7.772;2023-06-05T15:13:16;6.45;;;1.60;;
19664;SDS011;9980;51.020;7.772;2023-06-05T15:15:43;3.42;;;1.60;;
19664;SDS011;9980;51.020;7.772;2023-06-05T15:18:10;3.75;;;1.65;;
19664;SDS011;9980;51.020;7.772;2023-06-05T15:20:37;3.92;;;1.40;;
19664;SDS011;9980;51.020;7.772;2023-06-05T15:23:04;1.50;;;1.25;;
19664;SDS011;9980;51.020;7.772;2023-06-05T15:25:42;3.40;;;1.23;;
19664;SDS011;9980;51.020;7.772;2023-06-05T15:28:09;4.00;;;1.60;;
19664;SDS011;9980;51.020;7.772;2023-06-05T15:30:36;2.13;;;1.77;;
19664;SDS011;9980;51.020;7.772;2023-06-05T15:33:03;2.08;;;1.58;;
19664;SDS011;9980;51.020;7.772;2023-06-05T15:35:30;1.38;;;1.27;;
19664;SDS011;9980;51.020;7.772;2023-06-05T15:37:57;1.70;;;1.50;;